Time;durP1;ratioP1;P1;durP2;ratioP2;P2;SDS_P1;SDS_P2;PMS_P1;PMS_P2;Temp;Humidity;BMP_temperature;BMP_pressure;BME280_temperature;BME280_humidity;BME280_pressure;Samples;Min_cycle;Max_cycle;Signal;HPM_P1;HPM_P2
2023/07/07 00:01:51;;;;;;;10.70;6.30;;;18.30;99.90;;;;;;4981178;28;20065;-89
2023/07/07 00:04:17;;;;;;;8.43;5.28;;;18.30;99.90;;;;;;4981665;28;20076;-89
2023/07/07 00:06:43;;;;;;;7.35;5.25;;;18.30;99.90;;;;;;4997484;28;20026;-88
2023/07/07 00:09:09;;;;;;;7.65;5.85;;;18.20;99.90;;;;;;4981024;28;20052;-90
2023/07/07 00:11:36;;;;;;;11.30;6.40;;;18.20;99.90;;;;;;4997293;28;20076;-89
2023/07/07 00:14:01;;;;;;;9.95;5.82;;;18.20;99.90;;;;;;4996807;28;20022;-89
2023/07/07 00:16:27;;;;;;;10.20;5.72;;;18.20;99.90;;;;;;4964983;28;20038;-88
2023/07/07 00:18:58;;;;;;;7.97;5.63;;;18.10;99.90;;;;;;4997299;28;20049;-89
2023/07/07 00:21:25;;;;;;;11.82;6.13;;;18.10;99.90;;;;;;4996932;28;20022;-89
2023/07/07 00:23:53;;;;;;;11.20;6.47;;;18.10;99.90;;;;;;4996969;28;20022;-89
2023/07/07 00:26:20;;;;;;;6.68;5.63;;;18.10;99.90;;;;;;4981556;28;20033;-90
2023/07/07 00:28:47;;;;;;;8.63;6.10;;;18.00;99.90;;;;;;4997619;28;20017;-90
2023/07/07 00:31:13;;;;;;;9.55;5.82;;;18.00;99.90;;;;;;4997486;28;20117;-89
2023/07/07 00:33:38;;;;;;;8.57;5.70;;;18.00;99.90;;;;;;4997280;28;20068;-89
2023/07/07 00:36:04;;;;;;;8.10;6.00;;;18.00;99.90;;;;;;4967541;28;20022;-89
2023/07/07 00:38:30;;;;;;;8.55;5.93;;;17.90;99.90;;;;;;4984244;28;20120;-89
2023/07/07 00:41:00;;;;;;;11.80;6.20;;;17.90;99.90;;;;;;5000434;28;20060;-89
2023/07/07 00:43:27;;;;;;;9.23;6.10;;;17.90;99.90;;;;;;5017670;28;20539;-89
2023/07/07 00:45:52;;;;;;;8.52;5.82;;;17.90;99.90;;;;;;5017866;28;20058;-89
2023/07/07 00:48:23;;;;;;;11.25;6.32;;;17.90;99.90;;;;;;4984511;28;20487;-89
2023/07/07 00:50:52;;;;;;;11.00;6.45;;;17.80;99.90;;;;;;4999508;28;20029;-90
2023/07/07 00:53:19;;;;;;;10.23;6.60;;;17.80;99.90;;;;;;5000297;28;20053;-90
2023/07/07 00:55:49;;;;;;;11.13;6.28;;;17.80;99.90;;;;;;4968348;28;20487;-89
2023/07/07 00:58:20;;;;;;;11.25;6.45;;;17.80;99.90;;;;;;5000214;28;20056;-90
2023/07/07 01:00:50;;;;;;;11.13;6.78;;;17.80;99.90;;;;;;4999919;28;20044;-89
2023/07/07 01:03:32;;;;;;;9.63;6.35;;;17.80;99.90;;;;;;4999857;28;20072;-89
2023/07/07 01:06:01;;;;;;;9.95;6.57;;;17.80;99.90;;;;;;5001843;28;20034;-89
2023/07/07 01:08:28;;;;;;;11.48;6.60;;;17.70;99.90;;;;;;5003476;28;20022;-89
2023/07/07 01:10:54;;;;;;;9.90;6.13;;;17.70;99.90;;;;;;5004050;28;20122;-88
2023/07/07 01:13:21;;;;;;;13.25;6.63;;;17.70;99.90;;;;;;4967050;28;20117;-88
2023/07/07 01:16:13;;;;;;;10.23;6.85;;;17.70;99.90;;;;;;4983228;28;20107;-89
2023/07/07 01:18:55;;;;;;;8.63;6.53;;;17.60;99.90;;;;;;5000455;28;20065;-89
2023/07/07 01:21:44;;;;;;;9.88;7.15;;;17.60;99.90;;;;;;5016984;28;20038;-89
2023/07/07 01:24:28;;;;;;;7.78;6.50;;;17.60;99.90;;;;;;4999889;28;20603;-91
2023/07/07 01:27:42;;;;;;;10.32;7.68;;;17.60;99.90;;;;;;4999893;28;20044;-89
2023/07/07 01:30:57;;;;;;;13.77;11.50;;;17.50;99.90;;;;;;5000066;28;20052;-90
2023/07/07 01:33:27;;;;;;;17.48;13.93;;;17.50;99.90;;;;;;5001427;28;20085;-90
2023/07/07 01:35:53;;;;;;;29.73;20.70;;;17.50;99.90;;;;;;4999411;28;20481;-90
2023/07/07 01:38:36;;;;;;;30.58;22.80;;;17.50;99.90;;;;;;4983668;28;20040;-89
2023/07/07 01:41:10;;;;;;;41.45;28.27;;;17.50;99.90;;;;;;4999822;28;20021;-89
2023/07/07 01:43:44;;;;;;;40.70;28.23;;;17.40;99.90;;;;;;5017276;28;20026;-90
2023/07/07 01:46:25;;;;;;;44.42;30.67;;;17.40;99.90;;;;;;4998816;28;20022;-90
2023/07/07 01:49:25;;;;;;;43.00;29.55;;;17.40;99.90;;;;;;5000419;28;20029;-89
2023/07/07 01:52:22;;;;;;;37.63;27.17;;;17.30;99.90;;;;;;4999194;28;20014;-90
2023/07/07 01:55:02;;;;;;;37.03;24.27;;;17.30;99.90;;;;;;4999559;28;20030;-89
2023/07/07 01:57:28;;;;;;;30.83;21.50;;;17.30;99.90;;;;;;4998553;28;20489;-89
2023/07/07 01:59:55;;;;;;;28.15;17.40;;;17.20;99.90;;;;;;4982784;28;20392;-88
2023/07/07 02:02:22;;;;;;;24.17;16.65;;;17.20;99.90;;;;;;4982801;28;20049;-89
2023/07/07 02:04:48;;;;;;;25.25;15.98;;;17.20;99.90;;;;;;4982348;28;20401;-89
2023/07/07 02:07:14;;;;;;;20.15;13.52;;;17.20;99.90;;;;;;4982325;28;20033;-89
2023/07/07 02:09:40;;;;;;;19.30;13.18;;;17.10;99.90;;;;;;4998612;28;20110;-89
2023/07/07 02:12:06;;;;;;;19.13;12.45;;;17.10;99.90;;;;;;4998140;28;20037;-89
2023/07/07 02:14:32;;;;;;;15.10;10.98;;;17.10;99.90;;;;;;4998091;28;20053;-89
2023/07/07 02:16:58;;;;;;;19.98;11.02;;;17.10;99.90;;;;;;4982303;28;20068;-89
2023/07/07 02:19:24;;;;;;;15.02;10.48;;;17.00;99.90;;;;;;4982656;28;20097;-89
2023/07/07 02:21:50;;;;;;;12.00;9.25;;;17.00;99.90;;;;;;4998156;28;20025;-89
2023/07/07 02:24:16;;;;;;;17.15;10.60;;;17.00;99.90;;;;;;4982198;28;20080;-90
2023/07/07 02:26:42;;;;;;;14.00;8.55;;;16.90;99.90;;;;;;4982513;28;20042;-90
2023/07/07 02:29:07;;;;;;;13.30;9.25;;;16.90;99.90;;;;;;4965703;28;20026;-89
2023/07/07 02:31:33;;;;;;;13.20;8.90;;;16.90;99.90;;;;;;4998027;28;20033;-88
2023/07/07 02:33:59;;;;;;;12.70;9.27;;;16.90;99.90;;;;;;4981757;28;20021;-89
2023/07/07 02:36:26;;;;;;;15.07;10.15;;;16.90;99.90;;;;;;4965721;28;20380;-89
2023/07/07 02:38:55;;;;;;;15.30;8.77;;;16.90;99.90;;;;;;4981820;28;20061;-88
2023/07/07 02:41:21;;;;;;;11.95;8.00;;;16.80;99.90;;;;;;4998603;28;20108;-88
2023/07/07 02:43:46;;;;;;;16.45;9.68;;;16.90;99.90;;;;;;4981441;28;20037;-89
2023/07/07 02:46:12;;;;;;;11.77;8.18;;;16.80;99.90;;;;;;4965207;28;20034;-89
2023/07/07 02:48:38;;;;;;;15.38;9.23;;;16.80;99.90;;;;;;4983136;28;20120;-90
2023/07/07 02:51:05;;;;;;;12.27;9.45;;;16.80;99.90;;;;;;4984015;28;20058;-88
2023/07/07 02:53:34;;;;;;;11.88;8.25;;;16.80;99.90;;;;;;4984570;28;20037;-89
2023/07/07 02:56:01;;;;;;;14.02;9.25;;;16.80;99.90;;;;;;5001232;28;20109;-89
2023/07/07 02:58:27;;;;;;;13.38;9.05;;;16.70;99.90;;;;;;4999784;28;20138;-89
2023/07/07 03:00:53;;;;;;;14.70;9.38;;;16.70;99.90;;;;;;4997974;28;20061;-89
2023/07/07 03:03:20;;;;;;;18.38;9.30;;;16.70;99.90;;;;;;4981907;28;20032;-89
2023/07/07 03:05:46;;;;;;;13.10;8.60;;;16.70;99.90;;;;;;4997636;28;20049;-89
2023/07/07 03:08:12;;;;;;;12.50;8.85;;;16.70;99.90;;;;;;4997291;28;20457;-89
2023/07/07 03:10:40;;;;;;;11.95;8.77;;;16.70;99.90;;;;;;4981565;28;20057;-89
2023/07/07 03:13:06;;;;;;;12.82;9.15;;;16.70;99.90;;;;;;4997761;28;20094;-89
2023/07/07 03:15:39;;;;;;;17.05;9.10;;;16.60;99.90;;;;;;4981496;28;20374;-89
2023/07/07 03:18:09;;;;;;;10.77;8.75;;;16.60;99.90;;;;;;4982330;28;20465;-88
2023/07/07 03:21:02;;;;;;;12.77;8.90;;;16.60;99.90;;;;;;4997121;28;20048;-88
2023/07/07 03:23:28;;;;;;;12.70;8.75;;;16.60;99.90;;;;;;4978409;28;20120;-88
2023/07/07 03:25:53;;;;;;;11.48;8.57;;;16.60;99.90;;;;;;4998294;28;20026;-88
2023/07/07 03:28:19;;;;;;;10.63;8.57;;;16.50;99.90;;;;;;4978297;28;20473;-88
2023/07/07 03:30:45;;;;;;;12.63;8.43;;;16.50;99.90;;;;;;4961890;28;20023;-88
2023/07/07 03:33:13;;;;;;;11.35;8.82;;;16.50;99.90;;;;;;4961812;28;20078;-89
2023/07/07 03:35:39;;;;;;;11.23;7.90;;;16.50;99.90;;;;;;4963111;28;20023;-88
2023/07/07 03:38:05;;;;;;;11.90;8.57;;;16.50;99.90;;;;;;4961706;28;20037;-88
2023/07/07 03:40:31;;;;;;;15.13;9.25;;;16.50;99.90;;;;;;4961842;28;20058;-89
2023/07/07 03:42:57;;;;;;;13.20;8.50;;;16.40;99.90;;;;;;4961978;28;20080;-89
2023/07/07 03:45:23;;;;;;;12.43;9.13;;;16.40;99.90;;;;;;4946339;28;20038;-89
2023/07/07 03:47:48;;;;;;;17.38;8.65;;;16.40;99.90;;;;;;4962213;28;20029;-89
2023/07/07 03:50:14;;;;;;;13.30;8.48;;;16.40;99.90;;;;;;4962366;28;20023;-89
2023/07/07 03:52:40;;;;;;;11.73;8.80;;;16.30;99.90;;;;;;4945881;28;20030;-89
2023/07/07 03:55:07;;;;;;;13.75;9.48;;;16.30;99.90;;;;;;4962322;28;20481;-90
2023/07/07 03:57:32;;;;;;;10.57;8.63;;;16.30;99.90;;;;;;4978058;28;20513;-90
2023/07/07 03:59:58;;;;;;;13.00;8.80;;;16.30;99.90;;;;;;4980664;28;20033;-89
2023/07/07 04:02:24;;;;;;;12.00;9.57;;;16.30;99.90;;;;;;4981062;28;20022;-88
2023/07/07 04:04:50;;;;;;;12.95;8.98;;;16.30;99.90;;;;;;4980368;28;20078;-89
2023/07/07 04:10:40;;;;;;;15.00;9.10;;;16.20;99.90;;;;;;4998140;28;20145;-90
2023/07/07 04:13:07;;;;;;;13.38;8.65;;;16.20;99.90;;;;;;4949850;28;20422;-89
2023/07/07 04:15:33;;;;;;;12.60;9.15;;;16.20;99.90;;;;;;4965790;28;20050;-89
2023/07/07 04:17:59;;;;;;;13.32;8.98;;;16.20;99.90;;;;;;4982749;28;20077;-90
2023/07/07 04:20:25;;;;;;;12.60;8.70;;;16.20;99.90;;;;;;4965545;28;20034;-89
2023/07/07 04:22:51;;;;;;;10.65;8.80;;;16.30;99.90;;;;;;4981089;28;20077;-88
2023/07/07 04:25:19;;;;;;;9.65;8.65;;;16.30;99.90;;;;;;4965205;28;20062;-88
2023/07/07 04:27:45;;;;;;;11.70;8.85;;;16.30;99.90;;;;;;4981392;28;20389;-89
2023/07/07 04:30:12;;;;;;;14.15;9.55;;;16.30;99.90;;;;;;4964828;28;20048;-89
2023/07/07 04:32:39;;;;;;;12.50;9.20;;;16.30;99.90;;;;;;4981206;28;20117;-89
2023/07/07 04:35:05;;;;;;;11.00;8.85;;;16.30;99.90;;;;;;4980882;28;20068;-89
2023/07/07 04:37:32;;;;;;;12.02;8.45;;;16.30;99.90;;;;;;4998151;28;20050;-89
2023/07/07 04:39:58;;;;;;;15.23;9.30;;;16.30;99.90;;;;;;4981690;28;20117;-89
2023/07/07 04:42:24;;;;;;;12.10;9.02;;;16.30;99.90;;;;;;4981351;28;20026;-90
2023/07/07 04:44:50;;;;;;;9.80;8.55;;;16.40;99.90;;;;;;4965251;28;20035;-89
2023/07/07 04:47:16;;;;;;;12.02;9.27;;;16.40;99.90;;;;;;4965058;28;20193;-89
2023/07/07 04:49:41;;;;;;;14.77;9.32;;;16.40;99.90;;;;;;4982697;28;20489;-90
2023/07/07 04:52:07;;;;;;;12.90;10.00;;;16.40;99.90;;;;;;4951736;28;20042;-90
2023/07/07 04:54:35;;;;;;;14.00;9.82;;;16.40;99.90;;;;;;4967073;28;20092;-88
2023/07/07 04:57:03;;;;;;;14.70;9.40;;;16.40;99.90;;;;;;4982528;28;20042;-89
2023/07/07 04:59:30;;;;;;;15.10;10.25;;;16.40;99.90;;;;;;4965696;28;20501;-89
2023/07/07 05:01:57;;;;;;;11.52;9.32;;;16.40;99.90;;;;;;4981290;28;20027;-90
2023/07/07 05:04:22;;;;;;;13.23;9.25;;;16.40;99.90;;;;;;4980604;28;20110;-90
2023/07/07 05:06:48;;;;;;;13.32;8.40;;;16.50;99.90;;;;;;4980928;28;20445;-90
2023/07/07 05:09:16;;;;;;;13.73;9.90;;;16.50;99.90;;;;;;4980459;28;20034;-90
2023/07/07 05:11:41;;;;;;;15.23;9.80;;;16.50;99.90;;;;;;4978734;28;20477;-90
2023/07/07 05:14:07;;;;;;;15.05;10.25;;;16.50;99.90;;;;;;4968199;28;20076;-90
2023/07/07 05:16:36;;;;;;;13.85;9.80;;;16.50;99.90;;;;;;4983351;28;20022;-88
2023/07/07 05:19:02;;;;;;;14.48;10.55;;;16.60;99.90;;;;;;4999541;28;20487;-88
2023/07/07 05:21:27;;;;;;;13.02;9.93;;;16.60;99.90;;;;;;4998250;28;20121;-88
2023/07/07 05:23:54;;;;;;;17.17;10.13;;;16.70;99.90;;;;;;4999611;28;20018;-89
2023/07/07 05:26:21;;;;;;;14.40;10.82;;;16.70;99.90;;;;;;4983399;28;20026;-90
2023/07/07 05:28:48;;;;;;;12.40;9.40;;;16.70;99.90;;;;;;5008407;28;20396;-89
2023/07/07 05:31:13;;;;;;;16.33;9.90;;;16.70;99.90;;;;;;4996405;28;20006;-91
2023/07/07 05:33:39;;;;;;;13.63;9.70;;;16.80;99.90;;;;;;4967735;28;20041;-90
2023/07/07 05:36:10;;;;;;;12.70;9.40;;;16.80;99.90;;;;;;4981636;28;20033;-91
2023/07/07 05:38:40;;;;;;;11.38;9.48;;;16.90;99.90;;;;;;4999179;28;20105;-89
2023/07/07 05:41:06;;;;;;;14.20;9.48;;;16.90;99.90;;;;;;4989735;28;20076;-90
2023/07/07 05:43:34;;;;;;;10.88;9.32;;;16.90;99.90;;;;;;4949082;28;20053;-91
2023/07/07 05:46:02;;;;;;;11.55;8.05;;;17.00;99.90;;;;;;4989045;28;20027;-89
2023/07/07 05:48:29;;;;;;;13.77;7.78;;;17.00;99.90;;;;;;4980569;28;20058;-89
2023/07/07 05:50:57;;;;;;;12.48;7.78;;;17.00;99.90;;;;;;4964796;28;20105;-89
2023/07/07 05:53:24;;;;;;;11.52;6.90;;;17.10;99.90;;;;;;4980163;28;20026;-89
2023/07/07 05:55:50;;;;;;;13.82;7.57;;;17.10;99.90;;;;;;4979837;28;20022;-89
2023/07/07 05:58:16;;;;;;;11.63;7.43;;;17.10;99.90;;;;;;4963223;28;20057;-89
2023/07/07 06:00:42;;;;;;;8.15;6.50;;;17.20;99.90;;;;;;4982076;28;20065;-89
2023/07/07 06:03:08;;;;;;;9.63;6.90;;;17.20;99.90;;;;;;4999804;28;20013;-89
2023/07/07 06:05:34;;;;;;;13.23;6.82;;;17.20;99.90;;;;;;4983649;28;20045;-89
2023/07/07 06:08:00;;;;;;;10.77;5.80;;;17.30;99.90;;;;;;4966750;28;20026;-88
2023/07/07 06:10:26;;;;;;;11.15;6.90;;;17.30;99.90;;;;;;4998406;28;20123;-89
2023/07/07 06:12:55;;;;;;;13.07;5.90;;;17.30;99.90;;;;;;5015894;28;20025;-89
2023/07/07 06:15:21;;;;;;;10.20;5.72;;;17.30;99.90;;;;;;4998726;28;20057;-89
2023/07/07 06:17:54;;;;;;;9.95;5.85;;;17.40;99.90;;;;;;4998396;28;20540;-88
2023/07/07 06:20:19;;;;;;;9.95;5.35;;;17.50;99.90;;;;;;4982187;28;20044;-89
2023/07/07 06:22:45;;;;;;;8.48;5.28;;;17.50;99.90;;;;;;4982789;28;20473;-89
2023/07/07 06:25:11;;;;;;;13.52;6.18;;;17.50;99.90;;;;;;4967107;28;20198;-90
2023/07/07 06:27:36;;;;;;;9.95;5.90;;;17.60;99.90;;;;;;4998905;28;20033;-91
2023/07/07 06:30:03;;;;;;;8.90;5.03;;;17.60;99.90;;;;;;4982767;28;20057;-90
2023/07/07 06:32:28;;;;;;;9.50;5.15;;;17.70;99.90;;;;;;4966688;28;20030;-88
2023/07/07 06:34:54;;;;;;;10.38;5.90;;;17.70;99.90;;;;;;4982096;28;20084;-89
2023/07/07 06:37:20;;;;;;;11.93;5.38;;;17.80;99.90;;;;;;4981981;28;20557;-88
2023/07/07 06:39:46;;;;;;;11.73;5.60;;;17.80;99.90;;;;;;4966819;28;20370;-90
2023/07/07 06:42:12;;;;;;;10.20;4.75;;;17.90;99.90;;;;;;4999114;28;20022;-90
2023/07/07 06:44:38;;;;;;;10.30;5.32;;;18.00;99.90;;;;;;4998656;28;20021;-90
2023/07/07 06:47:13;;;;;;;8.63;4.45;;;18.00;99.90;;;;;;4998743;28;20029;-90
2023/07/07 06:49:39;;;;;;;10.85;4.90;;;18.10;99.90;;;;;;4998118;28;20169;-90
2023/07/07 06:52:05;;;;;;;11.23;5.60;;;18.10;99.90;;;;;;4998653;28;20060;-91
2023/07/07 06:54:31;;;;;;;13.75;5.05;;;18.20;99.90;;;;;;4982925;28;20026;-91
2023/07/07 06:56:56;;;;;;;10.30;5.15;;;18.20;99.90;;;;;;4982036;28;20431;-91
2023/07/07 06:59:22;;;;;;;13.98;5.65;;;18.30;99.90;;;;;;4982563;28;20030;-91
2023/07/07 07:01:47;;;;;;;10.00;5.47;;;18.40;99.90;;;;;;4963317;28;20023;-91
2023/07/07 07:04:13;;;;;;;9.88;5.03;;;18.40;99.90;;;;;;4982451;28;20022;-90
2023/07/07 07:07:16;;;;;;;8.25;4.45;;;18.50;99.90;;;;;;4966424;28;20093;-90
2023/07/07 07:09:42;;;;;;;10.95;5.50;;;18.50;99.90;;;;;;5016083;28;20040;-91
2023/07/07 07:12:09;;;;;;;11.13;5.50;;;18.60;99.90;;;;;;4966674;28;20094;-90
2023/07/07 07:14:34;;;;;;;11.55;4.90;;;18.70;99.90;;;;;;4967139;28;20026;-90
2023/07/07 07:17:00;;;;;;;11.15;5.80;;;18.70;99.90;;;;;;4965867;28;20084;-90
2023/07/07 07:19:25;;;;;;;13.93;5.38;;;18.80;99.90;;;;;;4965672;28;20393;-89
2023/07/07 07:21:51;;;;;;;15.10;4.88;;;18.80;99.90;;;;;;4998323;28;20117;-90
2023/07/07 07:24:19;;;;;;;12.60;5.05;;;18.90;99.90;;;;;;4997823;28;20030;-89
2023/07/07 07:26:44;;;;;;;9.82;4.82;;;19.00;99.90;;;;;;4982648;28;20026;-90
2023/07/07 07:29:14;;;;;;;8.73;4.53;;;19.10;99.90;;;;;;4965529;28;20045;-89
2023/07/07 07:31:40;;;;;;;11.30;4.90;;;19.20;99.90;;;;;;4982265;28;20037;-90
2023/07/07 07:34:22;;;;;;;9.93;4.32;;;19.20;99.90;;;;;;4998486;28;20075;-90
2023/07/07 07:36:49;;;;;;;10.10;4.38;;;19.30;99.90;;;;;;4997928;28;20029;-90
2023/07/07 07:39:15;;;;;;;6.53;3.38;;;19.40;99.90;;;;;;4980978;28;20022;-89
2023/07/07 07:41:41;;;;;;;11.32;3.58;;;19.40;99.90;;;;;;4970009;28;20026;-88
2023/07/07 07:44:06;;;;;;;9.90;3.78;;;19.40;99.90;;;;;;4989016;28;20077;-89
2023/07/07 07:46:32;;;;;;;8.60;3.75;;;19.50;99.90;;;;;;4985012;28;20030;-88
2023/07/07 07:48:58;;;;;;;11.35;3.75;;;19.60;99.90;;;;;;5001831;28;20495;-88
2023/07/07 07:51:23;;;;;;;8.43;3.25;;;19.60;99.90;;;;;;4969129;28;20029;-89
2023/07/07 07:53:49;;;;;;;7.90;3.33;;;19.70;99.90;;;;;;4970302;28;20072;-90
2023/07/07 07:56:14;;;;;;;8.07;3.42;;;19.80;99.90;;;;;;4986280;28;20034;-91
2023/07/07 07:58:40;;;;;;;6.85;3.42;;;19.90;99.90;;;;;;5019395;28;20050;-91
2023/07/07 08:01:06;;;;;;;5.57;2.80;;;20.00;99.90;;;;;;4986045;28;20030;-91
2023/07/07 08:03:31;;;;;;;8.20;3.40;;;20.10;99.90;;;;;;4985007;28;20040;-91
2023/07/07 08:05:57;;;;;;;7.68;3.28;;;20.20;99.90;;;;;;4969048;28;20528;-89
2023/07/07 08:08:23;;;;;;;6.32;2.90;;;20.30;99.90;;;;;;4969080;28;20548;-89
2023/07/07 08:10:48;;;;;;;6.45;3.05;;;20.40;99.90;;;;;;4984761;28;20477;-89
2023/07/07 08:13:14;;;;;;;6.78;2.70;;;20.40;99.90;;;;;;4985082;28;20385;-89
2023/07/07 08:15:41;;;;;;;6.25;2.90;;;20.50;99.90;;;;;;4968819;28;20376;-89
2023/07/07 08:18:06;;;;;;;8.10;4.15;;;20.60;99.90;;;;;;4984961;28;20025;-90
2023/07/07 08:20:32;;;;;;;6.60;3.35;;;20.70;99.90;;;;;;4969012;28;20049;-90
2023/07/07 08:22:58;;;;;;;6.95;2.85;;;20.70;99.90;;;;;;4986617;28;20026;-90
2023/07/07 08:25:24;;;;;;;8.27;3.15;;;20.80;99.90;;;;;;4987193;28;20037;-90
2023/07/07 08:27:52;;;;;;;6.18;2.70;;;20.90;99.90;;;;;;5001032;28;20058;-90
2023/07/07 08:30:17;;;;;;;7.72;2.72;;;21.00;99.90;;;;;;4968754;28;20361;-88
2023/07/07 08:32:43;;;;;;;6.55;3.00;;;21.00;99.90;;;;;;5000420;28;20033;-89
2023/07/07 08:35:10;;;;;;;5.32;2.50;;;21.10;99.90;;;;;;4968114;28;20037;-89
2023/07/07 08:37:36;;;;;;;9.07;2.80;;;21.10;99.90;;;;;;5000429;28;20038;-90
2023/07/07 08:40:04;;;;;;;6.25;2.30;;;21.20;99.90;;;;;;4964319;28;20089;-90
2023/07/07 08:42:34;;;;;;;6.25;2.00;;;21.30;99.90;;;;;;4981117;28;20030;-92
2023/07/07 08:45:03;;;;;;;5.97;2.38;;;21.40;99.90;;;;;;4981680;28;20408;-92
2023/07/07 08:48:01;;;;;;;5.68;2.35;;;21.50;99.90;;;;;;4999492;28;20022;-91
2023/07/07 08:50:39;;;;;;;9.70;2.58;;;21.50;99.90;;;;;;4978694;28;20052;-89
2023/07/07 08:53:41;;;;;;;7.60;2.25;;;21.60;99.90;;;;;;5013909;28;20076;-95
2023/07/07 08:56:24;;;;;;;5.93;2.58;;;21.70;99.90;;;;;;5031635;28;20018;-95
2023/07/07 08:59:19;;;;;;;6.32;2.97;;;21.70;99.90;;;;;;5023686;28;20069;-95
2023/07/07 09:01:56;;;;;;;6.78;3.05;;;21.80;99.90;;;;;;5023498;28;20010;-94
2023/07/07 09:04:27;;;;;;;8.38;2.75;;;21.90;99.90;;;;;;5023347;28;20022;-94
2023/07/07 09:07:14;;;;;;;8.48;3.55;;;21.90;99.90;;;;;;5021978;28;20362;-94
2023/07/07 09:10:07;;;;;;;7.55;2.67;;;22.10;99.90;;;;;;5003619;28;20030;-95
2023/07/07 09:12:58;;;;;;;7.78;2.85;;;22.10;99.90;;;;;;5002050;28;20026;-95
2023/07/07 09:15:29;;;;;;;6.30;2.70;;;22.20;99.90;;;;;;4991677;28;20037;-90
2023/07/07 09:18:14;;;;;;;6.05;2.63;;;22.30;99.90;;;;;;5017540;28;20338;-91
2023/07/07 09:20:41;;;;;;;6.03;2.78;;;22.30;99.90;;;;;;4999505;28;20381;-89
2023/07/07 09:23:17;;;;;;;4.50;2.63;;;22.40;99.90;;;;;;5004781;28;20053;-89
2023/07/07 09:25:58;;;;;;;7.15;3.00;;;22.50;99.90;;;;;;5007659;28;20030;-95
2023/07/07 09:28:29;;;;;;;5.05;2.70;;;22.50;99.90;;;;;;4994085;28;20052;-95
2023/07/07 09:31:14;;;;;;;5.35;2.47;;;22.60;99.90;;;;;;5001764;28;20108;-94
2023/07/07 09:33:39;;;;;;;4.60;2.50;;;22.60;99.90;;;;;;4986504;28;20120;-95
2023/07/07 09:36:14;;;;;;;5.93;2.38;;;22.70;99.90;;;;;;4985177;28;20061;-95
2023/07/07 09:39:04;;;;;;;5.80;2.30;;;22.70;99.90;;;;;;5001192;28;20080;-95
2023/07/07 09:41:51;;;;;;;4.00;2.40;;;22.90;99.50;;;;;;5002460;28;20419;-93
2023/07/07 09:44:52;;;;;;;6.65;2.65;;;22.90;99.00;;;;;;5005203;28;20030;-93
2023/07/07 09:47:37;;;;;;;5.53;2.08;;;23.00;98.90;;;;;;4943975;28;20109;-94
2023/07/07 09:50:14;;;;;;;5.45;2.47;;;23.10;98.60;;;;;;5001379;28;20169;-96
2023/07/07 09:52:46;;;;;;;5.78;2.30;;;23.20;98.40;;;;;;5002939;28;20113;-93
2023/07/07 09:55:17;;;;;;;6.05;2.60;;;23.20;98.60;;;;;;5001869;28;20362;-95
2023/07/07 09:58:05;;;;;;;;;;;23.30;98.40;;;;;;5001553;28;20053;-95
2023/07/07 10:00:34;;;;;;;3.92;2.03;;;23.30;98.00;;;;;;5000720;28;19910;-94
2023/07/07 10:03:19;;;;;;;5.95;2.35;;;23.40;97.40;;;;;;5000768;28;20018;-94
2023/07/07 10:05:45;;;;;;;4.68;2.40;;;23.40;97.20;;;;;;4998490;28;20022;-89
2023/07/07 10:08:14;;;;;;;5.78;2.45;;;23.50;97.10;;;;;;4986254;28;20090;-89
2023/07/07 10:10:40;;;;;;;4.22;2.22;;;23.60;96.40;;;;;;5004259;28;20038;-88
2023/07/07 10:13:10;;;;;;;6.25;2.58;;;23.60;96.40;;;;;;4984325;28;20030;-88
2023/07/07 10:15:51;;;;;;;;;;;23.70;96.40;;;;;;4985969;28;20026;-88
2023/07/07 10:18:28;;;;;;;4.88;2.67;;;23.80;95.80;;;;;;4999504;28;19905;-89
2023/07/07 10:20:57;;;;;;;5.30;2.58;;;23.80;95.80;;;;;;4999445;28;20030;-89
2023/07/07 10:23:26;;;;;;;4.88;2.60;;;23.90;94.90;;;;;;4999306;28;20049;-89
2023/07/07 10:25:52;;;;;;;4.95;2.10;;;23.90;95.00;;;;;;4999132;28;20029;-89
2023/07/07 10:28:20;;;;;;;7.80;2.50;;;24.00;94.80;;;;;;4973184;28;20029;-89
2023/07/07 10:30:47;;;;;;;5.00;2.42;;;24.00;94.70;;;;;;4999001;28;20116;-88
2023/07/07 10:33:16;;;;;;;6.95;2.55;;;24.10;94.70;;;;;;4983108;28;20109;-94
2023/07/07 10:35:42;;;;;;;6.43;2.55;;;24.20;94.50;;;;;;5001388;28;20041;-93
2023/07/07 10:41:30;;;;;;;6.30;2.60;;;24.30;94.20;;;;;;5029582;28;20045;-94
2023/07/07 10:43:55;;;;;;;5.00;2.63;;;24.30;93.30;;;;;;4983637;28;20030;-93
2023/07/07 10:46:21;;;;;;;6.45;2.58;;;24.40;93.00;;;;;;5000544;28;20026;-93
2023/07/07 10:48:56;;;;;;;5.85;2.28;;;24.40;92.70;;;;;;4984650;28;20022;-94
2023/07/07 10:51:39;;;;;;;4.28;2.30;;;24.50;92.80;;;;;;4987023;28;20089;-94
2023/07/07 10:54:08;;;;;;;5.80;2.58;;;24.50;92.90;;;;;;5001235;28;20033;-92
2023/07/07 10:56:49;;;;;;;5.68;2.70;;;24.60;93.10;;;;;;5000706;28;20113;-93
2023/07/07 10:59:24;;;;;;;4.50;2.30;;;24.60;91.80;;;;;;4995977;28;20053;-91
2023/07/07 11:01:49;;;;;;;6.03;2.50;;;24.70;91.90;;;;;;4999359;28;20042;-93
2023/07/07 11:04:27;;;;;;;5.22;2.65;;;24.70;92.20;;;;;;4999305;28;20037;-91
2023/07/07 11:07:22;;;;;;;6.72;2.70;;;24.80;92.10;;;;;;4997993;28;20374;-89
2023/07/07 11:10:15;;;;;;;5.38;2.40;;;24.80;92.40;;;;;;4998784;28;20071;-90
2023/07/07 11:13:08;;;;;;;9.15;2.30;;;24.90;91.10;;;;;;4997683;28;20436;-90
2023/07/07 11:15:40;;;;;;;4.28;2.58;;;25.00;90.50;;;;;;4997045;28;20022;-88
2023/07/07 11:18:30;;;;;;;5.13;2.55;;;25.10;90.40;;;;;;4997442;28;20132;-92
2023/07/07 11:21:15;;;;;;;7.05;2.70;;;25.20;89.40;;;;;;4997201;28;20029;-91
2023/07/07 11:23:59;;;;;;;5.93;2.90;;;25.20;89.40;;;;;;4997437;28;20539;-89
2023/07/07 11:26:46;;;;;;;5.22;2.72;;;25.30;89.70;;;;;;4997262;28;20417;-93
2023/07/07 11:29:30;;;;;;;5.95;2.33;;;25.40;90.00;;;;;;4999594;28;20032;-94
2023/07/07 11:32:09;;;;;;;5.22;2.65;;;25.40;88.80;;;;;;4997227;28;20465;-93
2023/07/07 11:35:10;;;;;;;6.07;2.28;;;25.50;88.10;;;;;;4997425;28;20058;-95
2023/07/07 11:38:00;;;;;;;4.30;2.20;;;25.50;88.20;;;;;;4997287;28;20113;-90
2023/07/07 11:40:35;;;;;;;5.70;2.80;;;25.60;88.20;;;;;;4997259;28;20094;-90
2023/07/07 11:43:29;;;;;;;5.25;2.30;;;25.70;89.00;;;;;;4996728;28;20108;-90
2023/07/07 11:46:14;;;;;;;5.55;2.60;;;25.70;87.90;;;;;;4996869;28;20121;-91
2023/07/07 11:49:15;;;;;;;6.88;2.60;;;25.80;88.10;;;;;;4997672;28;20072;-90
2023/07/07 11:51:49;;;;;;;4.88;2.28;;;25.90;85.30;;;;;;4996748;28;20030;-91
2023/07/07 11:54:27;;;;;;;5.90;3.00;;;25.90;85.30;;;;;;4996718;28;20026;-90
2023/07/07 11:57:15;;;;;;;7.00;2.47;;;26.00;84.60;;;;;;4997136;28;20061;-89
2023/07/07 11:59:50;;;;;;;5.78;2.70;;;26.00;83.80;;;;;;4996383;28;20401;-89
2023/07/07 12:02:24;;;;;;;6.13;2.65;;;26.10;83.00;;;;;;4996500;28;20032;-89
2023/07/07 12:04:52;;;;;;;5.45;2.80;;;26.20;83.30;;;;;;4995994;28;20104;-88
2023/07/07 12:07:38;;;;;;;4.65;2.63;;;26.20;83.80;;;;;;4995121;28;20022;-87
2023/07/07 12:10:23;;;;;;;4.35;2.25;;;26.20;84.40;;;;;;4993661;28;20026;-94
2023/07/07 12:13:14;;;;;;;5.20;2.95;;;26.30;83.80;;;;;;4993671;28;20066;-89
2023/07/07 12:16:11;;;;;;;3.58;2.00;;;26.30;82.80;;;;;;4965667;28;20046;-88
2023/07/07 12:18:40;;;;;;;6.00;2.70;;;26.40;79.30;;;;;;4993458;28;20023;-88
2023/07/07 12:21:27;;;;;;;6.03;2.40;;;26.40;80.40;;;;;;4993660;28;20097;-88
2023/07/07 12:24:42;;;;;;;5.55;2.60;;;26.50;81.50;;;;;;4992710;28;20034;-89
2023/07/07 12:27:20;;;;;;;5.65;2.72;;;26.50;80.70;;;;;;4953695;28;20137;-89
2023/07/07 12:29:48;;;;;;;4.40;2.25;;;26.50;80.80;;;;;;4976682;28;20030;-88
2023/07/07 12:32:14;;;;;;;7.03;2.53;;;26.60;81.10;;;;;;4996247;28;20128;-89
2023/07/07 12:34:47;;;;;;;4.93;2.45;;;26.60;78.80;;;;;;4983454;28;20037;-88
2023/07/07 12:37:21;;;;;;;6.13;3.08;;;26.70;77.50;;;;;;5017017;28;20034;-88
2023/07/07 12:39:59;;;;;;;6.43;2.63;;;26.70;77.00;;;;;;4999651;28;20052;-88
2023/07/07 12:42:31;;;;;;;6.07;2.75;;;26.80;78.10;;;;;;4999160;28;20022;-88
2023/07/07 12:45:08;;;;;;;4.15;2.30;;;26.90;76.60;;;;;;4999112;28;20065;-88
2023/07/07 12:47:37;;;;;;;4.22;2.65;;;27.00;76.20;;;;;;4999280;28;20022;-88
2023/07/07 12:50:20;;;;;;;4.35;2.40;;;27.00;76.50;;;;;;4999584;28;20033;-88
2023/07/07 12:52:47;;;;;;;4.53;2.60;;;27.10;75.50;;;;;;5000623;28;20026;-88
2023/07/07 12:55:23;;;;;;;4.95;2.55;;;27.10;75.10;;;;;;4985173;28;20034;-88
2023/07/07 12:58:16;;;;;;;7.30;2.88;;;27.20;74.80;;;;;;4999133;28;20064;-89
2023/07/07 13:00:44;;;;;;;4.88;2.38;;;27.20;73.90;;;;;;4997443;28;20620;-88
2023/07/07 13:03:09;;;;;;;5.65;2.75;;;27.30;73.70;;;;;;4980744;28;20049;-88
2023/07/07 13:05:43;;;;;;;3.75;2.40;;;27.30;72.80;;;;;;4979234;28;20418;-88
2023/07/07 13:08:09;;;;;;;6.93;2.47;;;27.30;71.40;;;;;;4979751;28;20076;-88
2023/07/07 13:10:40;;;;;;;3.30;2.22;;;27.30;69.90;;;;;;4947392;28;20030;-89